Guys Store, Texas
Current Conditions -  °F | °C
As of 10:55 AM on Monday 22 Dec 2014 (Local Time) from KDKR Reporting Station
Broken Clouds Broken Clouds  
Wind Chill: 66°   Ceiling: 2100
Heat Index: 66°   Visibility: NA
Dew Point: 61°   Wind: 12mph
Humidity: 83%   Direction: 210°SSW
Pressure: 29.7"   Gusts: 25mph
Location:  31.2807°N, 95.8748°W
Report Text: KDKR 221655Z AUTO 21010G22KT BKN021 19/16 A2970 RMK AO2
Loading
Personal Weather Stations






























Interactive Weather Map New forecast layout! Learn more

10-Day Weather Forecast

Advertisements
Track Severe Weather on mobile